TimeAKST,TemperatureF,Dew PointF,Humidity,Sea Level PressureIn,VisibilityMPH,Wind Direction,Wind SpeedMPH,Gust SpeedMPH,PrecipitationIn,Events,Conditions,WindDirDegrees,DateUTC
12:53 AM,24.1,21.9,91,30.19,10.0,NE,6.9,-,N/A,,Overcast,40,2013-01-16 09:53:00
1:53 AM,24.1,21.9,91,30.18,10.0,North,5.8,-,N/A,,Overcast,10,2013-01-16 10:53:00
2:25 AM,24.8,21.2,86,30.15,10.0,North,6.9,-,N/A,,Overcast,10,2013-01-16 11:25:00
3:53 AM,24.1,21.9,91,30.12,10.0,NNE,9.2,-,N/A,,Overcast,30,2013-01-16 12:53:00
4:45 AM,24.8,21.2,86,30.08,8.0,NNE,12.7,-,0.00,Snow,Light Snow,20,2013-01-16 13:45:00
4:53 AM,24.1,21.0,88,30.09,10.0,NNE,11.5,-,0.00,,Overcast,20,2013-01-16 13:53:00
5:46 AM,23.0,19.4,86,30.04,2.5,NNE,15.0,-,0.00,Snow,Light Snow,30,2013-01-16 14:46:00
5:53 AM,23.0,19.9,88,30.05,1.0,NNE,16.1,-,0.00,Snow,Light Snow,20,2013-01-16 14:53:00
6:01 AM,21.2,19.4,93,30.04,0.8,NNE,12.7,-,0.00,Snow,Light Snow,20,2013-01-16 15:01:00
6:22 AM,21.2,19.4,93,30.03,0.5,NNE,12.7,-,0.00,Fog-Snow,Snow,20,2013-01-16 15:22:00
6:53 AM,21.9,19.9,92,30.04,0.5,North,10.4,-,0.02,Fog-Snow,Snow,360,2013-01-16 15:53:00
7:53 AM,21.9,19.9,92,30.02,0.5,North,11.5,-,0.03,Fog-Snow,Snow,360,2013-01-16 16:53:00
7:55 AM,21.2,19.4,93,30.01,0.5,North,10.4,-,0.00,Fog-Snow,Snow,360,2013-01-16 16:55:00
8:10 AM,21.2,19.4,93,30.00,1.0,North,12.7,-,0.01,Snow,Snow,10,2013-01-16 17:10:00
8:26 AM,21.2,19.4,93,30.00,1.8,North,12.7,-,0.01,Snow,Snow,10,2013-01-16 17:26:00
8:35 AM,21.2,19.4,93,30.00,2.5,North,11.5,-,0.01,Snow,Snow,10,2013-01-16 17:35:00
8:42 AM,21.2,19.4,93,29.99,3.0,NNE,10.4,-,0.01,Snow,Light Snow,20,2013-01-16 17:42:00
8:51 AM,21.2,19.4,93,29.99,7.0,North,10.4,-,0.01,Snow,Light Snow,10,2013-01-16 17:51:00
8:53 AM,21.9,19.9,92,30.01,8.0,North,10.4,-,0.01,Snow,Light Snow,10,2013-01-16 17:53:00
9:41 AM,21.2,19.4,93,29.98,8.0,NNE,13.8,-,0.00,Snow,Light Snow,30,2013-01-16 18:41:00
9:53 AM,21.9,19.9,92,29.99,9.0,NNE,11.5,-,0.00,,Overcast,30,2013-01-16 18:53:00
10:02 AM,21.2,19.4,93,29.98,9.0,NNE,8.1,-,N/A,,Overcast,30,2013-01-16 19:02:00
10:44 AM,21.2,19.4,93,29.96,9.0,NNE,9.2,-,N/A,,Overcast,20,2013-01-16 19:44:00
10:53 AM,21.2,19.4,93,29.96,5.0,NNE,8.1,-,N/A,Snow,Light Snow,20,2013-01-16 19:53:00
11:26 AM,23.0,21.2,93,29.95,2.0,NNE,8.1,-,0.00,Snow,Light Snow,30,2013-01-16 20:26:00
11:53 AM,21.9,21.0,96,29.95,3.0,NNE,6.9,-,0.00,Snow,Light Snow,30,2013-01-16 20:53:00
12:53 PM,23.0,21.0,92,29.93,10.0,NNE,6.9,-,0.00,,Overcast,20,2013-01-16 21:53:00
1:53 PM,23.0,21.0,92,29.91,3.0,NNE,6.9,-,0.00,Snow,Light Snow,30,2013-01-16 22:53:00
2:07 PM,21.2,19.4,93,29.88,4.0,NE,5.8,-,0.00,Snow,Light Snow,40,2013-01-16 23:07:00
2:39 PM,23.0,19.4,86,29.88,8.0,NNE,5.8,-,0.00,Snow,Light Snow,20,2013-01-16 23:39:00
2:53 PM,23.0,19.9,88,29.88,10.0,NNE,6.9,-,0.00,,Overcast,20,2013-01-16 23:53:00
3:53 PM,23.0,19.9,88,29.86,10.0,North,5.8,-,N/A,,Overcast,10,2013-01-17 00:53:00
4:53 PM,23.0,19.9,88,29.84,10.0,North,3.5,-,N/A,,Overcast,10,2013-01-17 01:53:00
5:35 PM,23.0,21.2,93,29.81,10.0,Calm,Calm,-,N/A,,Overcast,0,2013-01-17 02:35:00
5:53 PM,21.9,21.0,96,29.82,10.0,Calm,Calm,-,N/A,,Overcast,0,2013-01-17 02:53:00
6:53 PM,21.9,19.9,92,29.80,10.0,Calm,Calm,-,N/A,,Overcast,0,2013-01-17 03:53:00
7:51 PM,21.2,21.2,100,29.77,10.0,Calm,Calm,-,N/A,,Overcast,0,2013-01-17 04:51:00
7:53 PM,21.9,21.0,96,29.78,9.0,Calm,Calm,-,N/A,,Overcast,0,2013-01-17 04:53:00
8:33 PM,21.2,21.2,100,29.75,4.0,Calm,Calm,-,N/A,,Overcast,0,2013-01-17 05:33:00
8:46 PM,21.2,21.2,100,29.75,5.0,Calm,Calm,-,N/A,,Overcast,0,2013-01-17 05:46:00
8:53 PM,21.9,21.9,100,29.76,6.0,Calm,Calm,-,N/A,,Overcast,0,2013-01-17 05:53:00
9:48 PM,21.2,21.2,100,29.73,10.0,Calm,Calm,-,N/A,,Overcast,0,2013-01-17 06:48:00
9:53 PM,21.9,21.0,96,29.74,9.0,Calm,Calm,-,N/A,,Overcast,0,2013-01-17 06:53:00
10:14 PM,21.2,21.2,100,29.72,10.0,Calm,Calm,-,N/A,,Overcast,0,2013-01-17 07:14:00
10:53 PM,21.9,19.9,92,29.73,10.0,Calm,Calm,-,N/A,,Overcast,0,2013-01-17 07:53:00
11:53 PM,21.0,19.9,96,29.71,10.0,Calm,Calm,-,N/A,,Overcast,0,2013-01-17 08:53:00